< < Back
Terminal Aerodrome Forecast


Current Version              Previous Versions:   1  2  3  4  5  6  7  8  9  

Terminal Aerodrome Forecast

617
FTUS42 KCAE 031018 AAD
TAFAGS
TAF AMD
KAGS 031018Z 0310/0406 VRB03KT P6SM SCT007 BKN040
      TEMPO 0310/0312 1SM BR BKN007
     FM031500 24012G20KT P6SM SCT040
     FM032000 25012G20KT P6SM VCTS BKN050CB
     FM040400 26006KT P6SM BKN080=

Latest METAR

964
SAUS70 KWBC 031600 RRE
MTRAGS
METAR KAGS 031553Z 28008KT 10SM SCT026 26/18 A2987 RMK AO2 SLP111
T02560183


USA.gov is the U.S. government's official web portal to all federal, state and local government web resources and services.